Latest Coastal Weather Observations for Lord Howe Island

IDN60701

Issued at 3:21 am EST Monday 21 August 2017 (issued every 10 minutes, with the page automatically refreshed every 10 minutes)

About coastal observations | Map of coastal stations | Coastal observations for NSW | Marine services | Other Formats
Station Details ID: 200839 Name: LORD HOWE ISLAND AERO Lat: -31.54 Lon: 159.08 Height: 5.0 m
Data from the previous 72 hours. | See also: Recent months at Lord Howe Island
Date/Time
EST
Temp
°C
Wind Pressure Rain since
9am
mm
Weather Cloud Vis
km
Sea
Height
m
Swell
Dir  Spd
kts
Gust
kts
hPa Trend Height
m
Period
s
Dir
21/03:00am 14.7 SSW 10 17 1017.0 - 0.4 - Partly cloudy 10 - - - -
21/02:30am 14.3 SSW 11 16 1017.1 - 0.2 - Mostly cloudy 10 - - - -
21/02:00am 14.9 SSW 11 17 1017.1 - 0.2 - Cloudy 10 - - - -
21/01:30am 14.7 SSW 11 20 1016.8 - 0.2 - Partly cloudy 10 - - - -
21/01:00am 14.4 SSW 11 20 1016.9 - 0.2 - Partly cloudy 10 - - - -
21/12:30am 15.2 SSW 10 15 1016.7 - 0.2 - Partly cloudy 10 - - - -
21/12:00am 14.8 SSW 10 19 1016.6 - 0.2 - Partly cloudy 10 - - - -
 
Date/Time
EST
Temp
°C
Wind Pressure Rain since
9am
mm
Weather Cloud Vis
km
Sea
Height
m
Swell
Dir  Spd
kts
Gust
kts
hPa Trend Height
m
Period
s
Dir
20/11:30pm 14.1 S 7 11 1016.8 - 0.2 - Cloudy 10 - - - -
20/11:23pm 14.2 SSW 15 26 1016.7 - 0.2 - Partly cloudy 10 - - - -
20/11:00pm 15.3 SSW 12 19 1016.1 - 0.2 - Partly cloudy 10 - - - -
20/10:30pm 15.6 SSW 13 21 1016.1 - 0.2 - Partly cloudy 10 - - - -
20/10:00pm 15.5 SSW 12 18 1015.8 - 0.2 - - 10 - - - -
20/09:30pm 15.5 SSW 11 18 1015.7 - 0.2 - Partly cloudy 10 - - - -
20/09:00pm 15.4 SSW 12 20 1015.6 - 0.2 - Partly cloudy 10 - - - -
20/08:30pm 15.4 SSW 13 23 1015.4 - 0.2 - Partly cloudy 10 - - - -
20/08:00pm 15.7 SSW 13 21 1015.2 - 0.2 - Partly cloudy 10 - - - -
20/07:30pm 15.6 SSW 13 25 1015.0 - 0.2 - Partly cloudy 10 - - - -
20/07:00pm 15.8 SSW 14 25 1014.7 - 0.2 - Partly cloudy 10 - - - -
20/06:30pm 15.6 SSW 15 26 1014.1 - 0.2 - Partly cloudy 10 - - - -
20/06:28pm 15.7 SSW 15 26 1014.1 - 0.2 - Partly cloudy 10 - - - -
20/06:00pm 15.7 SSW 14 23 1013.7 - 0.2 - Partly cloudy 10 - - - -
20/05:30pm 15.5 SW 15 26 1013.4 - 0.2 - Mostly clear 10 - - - -
20/05:25pm 15.4 SSW 16 26 1013.3 - 0.2 - Partly cloudy 10 - - - -
20/05:00pm 15.2 SSW 19 26 1013.0 - 0.2 - Partly cloudy 10 - - - -
20/04:41pm 15.2 SSW 15 25 1012.7 - 0.2 - Partly cloudy 10 - - - -
20/04:30pm 15.3 SSW 17 25 1012.7 - 0.2 - Partly cloudy 10 - - - -
20/04:06pm 15.6 SSW 16 26 1012.5 - 0.2 - Partly cloudy 10 - - - -
20/04:00pm 15.6 SSW 15 23 1012.5 - 0.2 - Partly cloudy 10 - - - -
20/03:32pm 16.0 SSW 16 26 1012.1 - 0.2 - Partly cloudy 10 - - - -
20/03:30pm 15.8 SSW 17 26 1012.2 - 0.2 - Partly cloudy 10 - - - -
20/03:00pm 16.0 SSW 17 27 1011.8 - 0.2 - Partly cloudy 10 - - - -
20/02:30pm 16.5 SSW 15 28 1011.7 - 0.2 - Mostly clear 10 - - - -
20/02:15pm 16.2 SSW 15 25 1011.7 - 0.2 - Partly cloudy 10 - - - -
20/02:00pm 14.9 SSW 13 21 1011.7 - 0.2 - Partly cloudy 10 - - - -
20/01:30pm 16.6 SSW 15 25 1011.4 - 0.2 - Partly cloudy 10 - - - -
20/01:13pm 16.5 SSW 17 28 1011.3 - 0.2 - Partly cloudy 10 - - - -
20/01:00pm 15.9 SSW 17 25 1011.3 - 0.2 - Partly cloudy 10 - - - -
20/12:30pm 16.3 SSW 16 29 1011.3 - 0.2 - Partly cloudy 10 - - - -
20/12:00pm 15.7 SSW 14 28 1011.1 - 0.2 - Partly cloudy 10 - - - -
20/11:50am 16.5 SSW 15 25 1011.2 - 0.2 - Partly cloudy 10 - - - -
20/11:30am 16.2 SW 14 22 1011.2 - 0.2 - Partly cloudy 10 - - - -
20/11:00am 15.4 SSW 18 32 1011.5 - 0.0 - Partly cloudy 10 - - - -
20/10:49am 15.0 SSW 17 36 1011.6 - 0.0 - Partly cloudy 10 - - - -
20/10:33am 15.7 SSW 15 25 1011.6 - 0.0 - Partly cloudy 10 - - - -
20/10:30am 15.5 SSW 13 21 1011.6 - 0.0 - Partly cloudy 10 - - - -
20/10:00am 16.1 SW 14 25 1011.6 - 0.0 - Partly cloudy 10 - - - -
20/09:39am 15.9 SSW 15 27 1011.6 - 0.0 - Partly cloudy 10 - - - -
20/09:30am 15.9 SSW 13 22 1011.4 - 0.0 - Partly cloudy 10 - - - -
20/09:07am 14.8 SSW 15 30 1011.3 - 0.0 - Partly cloudy 10 - - - -
20/09:00am 13.8 SSW 11 23 1011.3 - 0.0 - Partly cloudy 7 - - - -
20/08:56am 13.6 SSW 13 25 1011.4 - 0.0 - Partly cloudy 6 - - - -
20/08:30am 16.1 SW 15 25 1010.8 - 4.4 - Mostly cloudy 10 - - - -
20/08:00am 14.9 SSW 15 25 1010.5 - 4.4 - Partly cloudy 10 - - - -
20/07:32am 15.0 SSW 15 28 1010.1 - 4.4 - Partly cloudy 10 - - - -
20/07:30am 14.8 SSW 15 23 1010.0 - 4.4 - Partly cloudy 10 - - - -
20/07:00am 14.0 SSW 18 30 1010.0 - 4.4 - Partly cloudy 10 - - - -
20/06:30am 14.0 SSW 18 28 1009.3 - 4.4 - Partly cloudy 10 - - - -
20/06:12am 13.8 SSW 16 27 1009.0 - 4.2 - Partly cloudy 10 - - - -
20/06:06am 13.6 SSW 15 22 1008.9 - 4.2 - Partly cloudy 10 - - - -
20/06:00am 13.1 SSW 17 29 1008.9 - 4.2 - Partly cloudy 10 - - - -
20/05:49am 13.0 SSW 19 32 1008.8 - 4.2 - Partly cloudy 6 - - - -
20/05:30am 14.7 SSW 17 28 1008.1 R 3.6 Recent precip. Partly cloudy 18 - - - -
20/05:00am 14.3 SSW 17 29 1007.8 - 3.6 - Partly cloudy 10 - - - -
20/04:30am 14.3 SSW 18 31 1007.5 - 3.6 - Partly cloudy 10 - - - -
20/04:00am 14.5 SSW 16 31 1007.0 - 3.6 - Partly cloudy 10 - - - -
20/03:30am 14.7 SSW 18 28 1006.5 - 3.6 - Partly cloudy 10 - - - -
20/03:00am 14.5 SSW 15 25 1006.4 - 3.6 - Partly cloudy 10 - - - -
20/02:30am 14.9 SSW 15 26 1006.1 - 3.6 - Mostly clear 10 - - - -
20/02:00am 14.6 SSW 15 31 1006.2 - 3.6 - Partly cloudy 10 - - - -
20/01:30am 15.0 SW 15 27 1006.5 - 3.6 - Partly cloudy 10 - - - -
20/01:00am 15.1 SW 15 28 1006.4 - 3.6 - Partly cloudy 10 - - - -
20/12:30am 14.6 SSW 16 32 1006.5 - 3.6 - Partly cloudy 10 - - - -
20/12:00am 12.6 SSW 17 36 1007.1 - 3.6 - Partly cloudy 10 - - - -
 
Date/Time
EST
Temp
°C
Wind Pressure Rain since
9am
mm
Weather Cloud Vis
km
Sea
Height
m
Swell
Dir  Spd
kts
Gust
kts
hPa Trend Height
m
Period
s
Dir
19/11:30pm 14.9 SSW 18 30 1006.4 - 3.4 - Mostly cloudy 10 - - - -
19/11:00pm 15.1 SW 18 29 1006.2 - 3.4 - Partly cloudy 10 - - - -
19/10:31pm 15.4 SSW 16 26 1006.0 - 3.2 - Partly cloudy 10 - - - -
19/10:30pm 15.3 SSW 17 26 1006.0 - 3.2 - Partly cloudy 10 - - - -
19/10:00pm 15.4 SSW 17 30 1005.9 - 3.2 - Partly cloudy 10 - - - -
19/09:30pm 14.9 SSW 19 32 1005.9 - 3.2 - Partly cloudy 10 - - - -
19/09:00pm 14.6 SSW 16 32 1005.5 - 3.2 - Partly cloudy 10 - - - -
19/08:30pm 14.8 SSW 17 27 1005.3 - 3.2 - Partly cloudy 10 - - - -
19/08:00pm 14.6 SSW 17 31 1005.1 - 3.2 - Partly cloudy 10 - - - -
19/07:33pm 14.0 SW 17 28 1005.1 - 3.2 - Partly cloudy 9 - - - -
19/07:30pm 13.7 SW 17 26 1005.1 - 3.2 - Partly cloudy 9 - - - -
19/07:01pm 12.8 SSW 24 34 1005.1 - 3.2 - Partly cloudy 10 - - - -
19/07:00pm 13.0 SSW 25 34 1005.1 - 3.2 - Partly cloudy 10 - - - -
19/06:30pm 14.4 SSW 15 25 1004.8 - 3.0 - Partly cloudy 10 - - - -
19/06:20pm 14.2 SSW 11 20 1004.8 - 3.0 - Partly cloudy 10 - - - -
19/06:08pm 12.7 SW 15 25 1004.9 - 3.0 - Partly cloudy 6 - - - -
19/06:06pm 12.7 SW 16 25 1005.0 - 3.0 - Partly cloudy 6 - - - -
19/06:00pm 14.3 SW 18 28 1004.9 - 3.0 - Partly cloudy 10 - - - -
19/05:50pm 13.9 WSW 21 25 1004.4 - 2.8 - Partly cloudy 10 - - - -
19/05:40pm 15.2 SW 18 29 1004.3 - 2.8 - Partly cloudy 10 - - - -
19/05:30pm 15.2 SW 17 26 1004.0 - 2.8 - Cloudy 10 - - - -
19/05:18pm 15.3 SW 16 27 1003.9 - 2.8 - Partly cloudy 10 - - - -
19/05:00pm 15.5 SW 17 26 1003.6 - 2.8 - Partly cloudy 10 - - - -
19/04:30pm 15.3 SW 16 24 1003.0 - 2.8 - Partly cloudy 10 - - - -
19/04:00pm 15.8 SW 19 30 1002.8 - 2.8 - Partly cloudy 10 - - - -
19/03:39pm 15.5 SW 16 26 1002.7 - 2.8 - Partly cloudy 10 - - - -
19/03:30pm 15.7 SW 18 26 1002.5 - 2.8 - Partly cloudy 10 - - - -
19/03:00pm 15.2 SW 17 24 1002.2 - 2.8 - Partly cloudy 10 - - - -
19/02:42pm 15.1 SW 15 25 1002.4 - 2.8 - - 10 - - - -
19/02:30pm 15.4 SW 17 24 1002.5 R 2.8 Fine Cloudy 20 - - - -
19/02:00pm 15.1 SW 14 21 1002.1 - 2.8 - Partly cloudy 10 - - - -
19/01:31pm 15.3 SW 16 28 1001.8 - 2.8 - Partly cloudy 10 - - - -
19/01:30pm 15.7 SW 15 23 1001.8 - 2.8 - Partly cloudy 10 - - - -
19/01:00pm 14.5 SW 14 20 1001.9 - 2.8 - Partly cloudy 10 - - - -
19/12:30pm 14.0 WSW 14 23 1002.3 - 2.8 - Partly cloudy 10 - - - -
19/12:00pm 13.6 SW 13 19 1003.0 - 2.6 - Partly cloudy 10 - - - -
19/11:34am 13.8 SW 16 26 1003.1 - 2.6 - Partly cloudy 10 - - - -
19/11:30am 14.1 SW 17 26 1003.0 - 2.6 - Cloudy 10 - - - -
19/11:23am 13.7 SW 15 29 1002.9 - 2.6 - Partly cloudy 10 - - - -
19/11:00am 13.9 SW 13 20 1003.3 - 2.6 - Partly cloudy 10 - - - -
19/10:30am 13.7 SW 14 20 1003.5 - 2.0 - Partly cloudy 10 - - - -
19/10:00am 13.7 SW 11 17 1003.6 - 2.0 - Partly cloudy 10 - - - -
19/09:30am 13.1 SSE 7 17 1003.0 - 2.0 - Partly cloudy 10 - - - -
19/09:25am 12.0 SE 7 11 1003.2 - 2.0 - Partly cloudy 10 - - - -
19/09:00am 12.3 SW 19 32 1004.5 - 0.8 - Partly cloudy 5 - - - -
19/08:58am 12.3 SW 18 32 1004.5 - 0.6 - Partly cloudy 6 - - - -
19/08:52am 13.7 SW 15 27 1004.1 - 0.2 - Partly cloudy 10 - - - -
19/08:30am 13.8 SW 11 15 1003.7 F 17.0 Recent precip. Cloudy 18 - - - -
19/08:00am 12.2 SSW 10 19 1003.9 - 17.0 - Partly cloudy 10 - - - -
19/07:41am 11.9 SSW 15 29 1004.2 - 17.0 - Partly cloudy 10 - - - -
19/07:30am 11.8 SW 16 24 1004.3 - 16.8 - Partly cloudy 10 - - - -
19/07:29am 11.8 SW 16 24 1004.2 - 16.8 - Partly cloudy 10 - - - -
19/07:08am 12.5 SW 15 27 1003.8 - 16.6 - Partly cloudy 6 - - - -
19/07:00am 13.5 SW 16 26 1003.6 - 16.4 - Partly cloudy 10 - - - -
19/06:52am 13.8 SW 15 26 1003.4 - 16.4 - Partly cloudy 10 - - - -
19/06:44am 13.2 SW 15 21 1003.3 - 16.4 - Partly cloudy 10 - - - -
19/06:30am 12.8 SW 16 23 1003.4 - 16.2 - Partly cloudy 5 - - - -
19/06:27am 12.5 SW 17 27 1003.5 - 16.2 - Partly cloudy 5 - - - -
19/06:18am 12.8 SW 18 27 1003.5 - 15.4 - Partly cloudy 6 - - - -
19/06:13am 12.9 SW 17 26 1003.5 - 15.2 - Partly cloudy 8 - - - -
19/06:00am 12.9 SW 16 25 1003.2 - 15.0 - Partly cloudy 6 - - - -
19/05:55am 13.0 SW 15 25 1003.2 - 15.0 - Partly cloudy 6 - - - -
19/05:46am 12.6 SSW 14 23 1003.2 - 14.6 - Partly cloudy 6 - - - -
19/05:44am 12.7 SSW 14 24 1003.2 - 14.6 - Partly cloudy 7 - - - -
19/05:30am 12.3 SSW 13 27 1002.9 F 14.4 Drizzle Cloudy 7 - - - -
19/05:22am 12.5 SSW 13 22 1002.8 - 14.2 - Partly cloudy 6 - - - -
19/05:12am 12.6 SW 15 24 1002.9 - 14.0 - Partly cloudy 5 - - - -
19/05:02am 12.5 SW 17 27 1003.1 - 13.6 - Partly cloudy 2 - - - -
19/05:00am 12.8 SW 17 24 1003.1 - 12.6 - Partly cloudy 2 - - - -
19/04:51am 12.8 SSW 15 21 1002.3 - 8.6 - Partly cloudy 8 - - - -
19/04:32am 13.4 WSW 20 34 1002.3 - 8.2 - Partly cloudy 6 - - - -
19/04:30am 13.9 SW 19 34 1002.3 - 8.0 - Partly cloudy 9 - - - -
19/04:00am 15.1 WSW 21 31 1002.2 - 8.0 - Partly cloudy 10 - - - -
19/03:53am 14.9 SW 19 34 1002.2 - 8.0 - Partly cloudy 10 - - - -
19/03:45am 13.6 WSW 23 33 1002.3 - 7.8 - Partly cloudy 7 - - - -
19/03:38am 13.6 WSW 24 33 1002.3 - 7.8 - Partly cloudy 6 - - - -
19/03:34am 13.4 WSW 23 33 1002.4 - 7.8 - Partly cloudy 7 - - - -
19/03:30am 13.5 WSW 24 33 1002.4 - 7.6 - Partly cloudy 7 - - - -
19/03:00am 13.6 W 28 35 1002.6 - 7.6 - Partly cloudy 10 - - - -
19/02:32am 13.6 WSW 20 30 1003.0 - 7.4 - Partly cloudy 10 - - - -
19/02:30am 13.6 WSW 19 27 1003.1 - 7.4 - Cloudy 10 - - - -
19/02:16am 12.8 SW 19 31 1003.5 - 7.4 - Partly cloudy 10 - - - -
19/02:00am 12.2 SW 23 38 1003.7 - 7.2 - Partly cloudy 3 - - - -
19/01:54am 12.1 WSW 24 41 1003.5 - 7.0 - Partly cloudy 5 - - - -
19/01:50am 13.9 WSW 23 41 1003.4 - 6.4 - Partly cloudy 10 - - - -
19/01:33am 13.6 SW 20 30 1003.4 - 6.4 - Partly cloudy 10 - - - -
19/01:30am 13.8 SW 20 29 1003.6 - 6.4 - Partly cloudy 10 - - - -
19/01:27am 13.6 SW 20 29 1003.6 - 6.4 - Partly cloudy 10 - - - -
19/01:00am 13.0 WSW 29 41 1004.1 - 5.4 - Partly cloudy 4 - - - -
19/12:55am 13.1 WSW 29 41 1004.2 - 5.2 - Partly cloudy 6 - - - -
19/12:54am 13.1 WSW 31 41 1004.1 - 5.0 - Partly cloudy 7 - - - -
19/12:39am 13.3 SW 18 28 1004.3 - 4.8 - Partly cloudy 10 - - - -
19/12:30am 12.9 SSW 17 29 1004.4 - 4.6 - Partly cloudy 8 - - - -
19/12:19am 12.2 SW 23 38 1004.6 - 4.6 - Partly cloudy 6 - - - -
19/12:04am 14.5 SW 19 32 1004.1 - 4.4 - Partly cloudy 10 - - - -
19/12:00am 14.0 SW 19 32 1004.2 - 4.4 - Partly cloudy 10 - - - -
 
Date/Time
EST
Temp
°C
Wind Pressure Rain since
9am
mm
Weather Cloud Vis
km
Sea
Height
m
Swell
Dir  Spd
kts
Gust
kts
hPa Trend Height
m
Period
s
Dir
18/11:53pm 13.3 SW 21 32 1004.4 - 4.4 - Partly cloudy 6 - - - -
18/11:38pm 12.5 WSW 34 44 1004.7 - 4.0 - Partly cloudy 4 - - - -
18/11:36pm 12.7 WSW 35 44 1004.7 - 3.8 - Partly cloudy 5 - - - -
18/11:30pm 13.8 SW 22 39 1004.7 - 3.6 - Cloudy 9 - - - -
18/11:15pm 13.1 SW 21 38 1004.5 - 3.4 - Partly cloudy 6 - - - -
18/11:14pm 13.2 SW 21 38 1004.5 - 3.4 - Partly cloudy 8 - - - -
18/11:00pm 13.3 SW 19 29 1004.6 - 3.0 - Partly cloudy 5 - - - -
18/10:43pm 13.4 WSW 22 32 1004.3 - 2.6 - Partly cloudy 4 - - - -
18/10:42pm 13.2 WSW 21 28 1004.3 - 2.6 - Partly cloudy 4 - - - -
18/10:37pm 13.2 WSW 33 51 1004.4 - 2.4 - Partly cloudy 6 - - - -
18/10:33pm 16.3 WSW 30 49 1004.0 - 2.2 - Partly cloudy 10 - - - -
18/10:30pm 16.5 WSW 29 37 1004.0 - 2.2 - Partly cloudy 10 - - - -
18/10:00pm 15.5 WSW 33 44 1004.4 - 2.2 - Partly cloudy 10 - - - -
18/09:49pm 15.0 WSW 37 47 1004.5 - 2.2 - Partly cloudy 9 - - - -
18/09:45pm 15.3 WSW 36 44 1004.6 - 2.2 - Partly cloudy 10 - - - -
18/09:33pm 15.3 SW 24 35 1004.7 - 2.2 - Partly cloudy 10 - - - -
18/09:30pm 15.0 SW 24 33 1004.8 - 2.2 - Partly cloudy 10 - - - -
18/09:29pm 14.8 SW 24 33 1004.9 - 2.2 - Partly cloudy 10 - - - -
18/09:02pm 12.8 WSW 25 39 1005.3 - 2.0 - Partly cloudy 6 - - - -
18/09:00pm 14.2 WSW 25 39 1005.4 - 1.6 - Partly cloudy 10 - - - -
18/08:59pm 14.5 WSW 25 32 1005.3 - 1.6 - Partly cloudy 10 - - - -
18/08:45pm 13.5 SW 21 31 1005.2 - 1.6 - Partly cloudy 4 - - - -
18/08:43pm 13.1 SW 22 31 1005.3 - 1.4 - Partly cloudy 4 - - - -
18/08:30pm 14.4 WSW 35 46 1005.4 - 1.2 - Cloudy 10 - - - -
18/08:15pm 13.2 WSW 31 43 1005.5 - 1.0 - Partly cloudy 3 - - - -
18/08:11pm 13.0 SW 29 38 1005.7 - 0.8 - Partly cloudy 3 - - - -
18/08:08pm 13.7 WSW 41 54 1005.2 - 0.2 - Partly cloudy 5 - - - -
18/08:06pm 14.8 WSW 41 48 1005.2 - 0.2 - Partly cloudy 8 - - - -
18/08:00pm 16.6 WSW 28 39 1004.8 - 0.2 - Partly cloudy 10 - - - -
18/07:30pm 16.0 WSW 27 37 1004.8 - 0.2 - Partly cloudy 9 - - - -
18/07:12pm 16.6 WSW 29 39 1004.7 - 0.2 - Partly cloudy 10 - - - -
18/07:00pm 16.5 WSW 29 38 1004.7 - 0.2 - Partly cloudy 10 - - - -
18/06:30pm 15.4 SW 32 45 1004.9 - 0.2 - Partly cloudy 9 - - - -
18/06:00pm 16.9 WSW 28 43 1004.1 - 0.2 - Partly cloudy 10 - - - -
18/05:30pm 17.1 WSW 26 36 1003.7 - 0.2 - Cloudy 10 - - - -
18/05:00pm 16.8 WSW 26 37 1003.8 - 0.2 - Partly cloudy 10 - - - -
18/04:30pm 17.1 WSW 29 41 1003.3 - 0.2 - Partly cloudy 10 - - - -
18/04:00pm 16.4 WSW 32 46 1003.1 - 0.2 - Partly cloudy 10 - - - -
18/03:30pm 18.3 WSW 35 48 1002.6 - 0.2 - Partly cloudy 10 - - - -
18/03:00pm 18.5 WSW 31 41 1002.5 - 0.2 - Partly cloudy 10 - - - -
18/02:30pm 18.3 WSW 28 40 1002.6 - 0.2 - Mostly cloudy 9 - - - -
18/02:18pm 17.9 WSW 26 38 1002.8 - 0.2 - Partly cloudy 10 - - - -
18/02:00pm 15.9 WSW 29 41 1002.9 - 0.2 - Partly cloudy 5 - - - -
18/01:58pm 16.0 WSW 29 41 1002.9 - 0.0 - Partly cloudy 5 - - - -
18/01:35pm 19.9 W 30 40 1002.5 - 0.0 - Partly cloudy 10 - - - -
18/01:30pm 19.5 W 31 40 1002.6 - 0.0 - Partly cloudy 10 - - - -
18/01:00pm 19.8 W 29 36 1003.0 - 0.0 - - 10 - - - -
18/12:30pm 19.9 WSW 29 35 1003.3 - 0.0 - Mostly clear 10 - - - -
18/12:00pm 20.0 W 27 33 1003.8 - 0.0 - Mostly clear 10 - - - -
18/11:30am 20.1 W 26 33 1004.5 - 0.0 - Mostly clear 10 - - - -
18/11:00am 20.2 WSW 26 33 1005.0 - 0.0 - Mostly clear 10 - - - -
18/10:30am 20.2 WSW 24 31 1005.6 - 0.0 - Mostly clear 10 - - - -
18/10:00am 20.2 WSW 24 31 1006.1 - 0.0 - Mostly clear 10 - - - -
18/09:30am 20.2 WSW 23 31 1006.5 - 0.0 - Mostly clear 10 - - - -
18/09:00am 20.2 WSW 20 26 1006.8 - 0.0 - Mostly clear 10 - - - -
18/08:30am 20.0 WSW 19 25 1007.0 - 0.2 - Mostly clear 10 - - - -
18/08:00am 19.6 W 20 23 1007.3 - 0.2 - Mostly clear 10 - - - -
18/07:30am 19.3 W 20 24 1007.3 - 0.2 - Mostly clear 10 - - - -
18/07:00am 19.2 W 18 22 1007.2 - 0.2 - - 10 - - - -
18/06:30am 18.9 W 18 22 1007.2 - 0.2 - - 10 - - - -
18/06:00am 18.4 W 12 16 1006.9 - 0.2 - - 10 - - - -
18/05:30am 17.7 W 9 12 1007.0 - 0.2 - - 10 - - - -
18/05:00am 16.2 W 5 7 1007.0 - 0.2 - - 10 - - - -
18/04:30am 12.6 SSW 4 5 1006.9 - 0.2 - - 10 - - - -
18/04:00am 12.2 SW 3 4 1006.9 - 0.2 - - 10 - - - -
18/03:30am 12.0 CALM 0 0 1007.0 - 0.2 - - 10 - - - -
18/03:00am 12.7 CALM 0 0 1007.2 - 0.2 - - 10 - - - -

Other Formats:

Comma delimited format used in spreadsheet applications
http://www.bom.gov.au/fwo/IDN60701/IDN60701.94995.axf

JavaScript Object Notation format (JSON) in row-major order
http://www.bom.gov.au/fwo/IDN60701/IDN60701.94995.json